sensor_id;sensor_type;location;lat;lon;timestamp;temperature;humidity
44477;DHT22;30180;44.788;10.366;2023-11-21T00:00:07;18.00;68.10
44477;DHT22;30180;44.788;10.366;2023-11-21T00:02:39;18.10;68.10
44477;DHT22;30180;44.788;10.366;2023-11-21T00:05:08;18.00;68.10
44477;DHT22;30180;44.788;10.366;2023-11-21T00:07:37;18.00;68.00
44477;DHT22;30180;44.788;10.366;2023-11-21T00:10:06;18.00;68.00
44477;DHT22;30180;44.788;10.366;2023-11-21T00:12:36;18.00;68.00
44477;DHT22;30180;44.788;10.366;2023-11-21T00:15:06;18.00;68.10
44477;DHT22;30180;44.788;10.366;2023-11-21T00:17:37;18.00;68.00
44477;DHT22;30180;44.788;10.366;2023-11-21T00:20:07;18.00;68.10
44477;DHT22;30180;44.788;10.366;2023-11-21T00:22:35;18.00;68.00
44477;DHT22;30180;44.788;10.366;2023-11-21T00:25:05;18.00;68.00
44477;DHT22;30180;44.788;10.366;2023-11-21T00:27:33;18.00;68.10
44477;DHT22;30180;44.788;10.366;2023-11-21T00:30:02;18.00;68.00
44477;DHT22;30180;44.788;10.366;2023-11-21T00:32:35;18.00;68.00
44477;DHT22;30180;44.788;10.366;2023-11-21T00:35:04;18.00;68.00
44477;DHT22;30180;44.788;10.366;2023-11-21T00:37:33;18.00;68.00
44477;DHT22;30180;44.788;10.366;2023-11-21T00:40:01;18.00;68.00
44477;DHT22;30180;44.788;10.366;2023-11-21T00:42:32;18.00;68.00
44477;DHT22;30180;44.788;10.366;2023-11-21T00:45:00;18.00;68.00
44477;DHT22;30180;44.788;10.366;2023-11-21T00:47:30;18.00;68.00
44477;DHT22;30180;44.788;10.366;2023-11-21T00:50:00;18.00;68.00
44477;DHT22;30180;44.788;10.366;2023-11-21T00:52:28;18.00;68.00
44477;DHT22;30180;44.788;10.366;2023-11-21T00:54:57;18.00;68.00
44477;DHT22;30180;44.788;10.366;2023-11-21T00:57:27;18.00;68.00
44477;DHT22;30180;44.788;10.366;2023-11-21T00:59:55;18.00;68.00
44477;DHT22;30180;44.788;10.366;2023-11-21T01:02:23;18.00;68.10
44477;DHT22;30180;44.788;10.366;2023-11-21T01:04:52;18.00;68.00
44477;DHT22;30180;44.788;10.366;2023-11-21T01:07:22;18.00;68.00
44477;DHT22;30180;44.788;10.366;2023-11-21T01:09:51;18.00;68.00
44477;DHT22;30180;44.788;10.366;2023-11-21T01:12:19;18.00;68.00
44477;DHT22;30180;44.788;10.366;2023-11-21T01:14:48;18.00;68.00
44477;DHT22;30180;44.788;10.366;2023-11-21T01:17:16;18.00;68.00
44477;DHT22;30180;44.788;10.366;2023-11-21T01:19:45;18.00;68.00
44477;DHT22;30180;44.788;10.366;2023-11-21T01:22:13;18.00;68.00
44477;DHT22;30180;44.788;10.366;2023-11-21T01:24:44;18.00;68.00
44477;DHT22;30180;44.788;10.366;2023-11-21T01:27:13;18.00;68.00
44477;DHT22;30180;44.788;10.366;2023-11-21T01:29:41;18.00;68.00
44477;DHT22;30180;44.788;10.366;2023-11-21T01:32:09;18.00;68.00
44477;DHT22;30180;44.788;10.366;2023-11-21T01:34:37;17.90;68.00
44477;DHT22;30180;44.788;10.366;2023-11-21T01:37:06;18.00;68.00
44477;DHT22;30180;44.788;10.366;2023-11-21T01:39:34;18.00;68.00
44477;DHT22;30180;44.788;10.366;2023-11-21T01:42:04;18.00;68.00
44477;DHT22;30180;44.788;10.366;2023-11-21T01:44:33;18.00;68.00
44477;DHT22;30180;44.788;10.366;2023-11-21T01:47:01;18.00;68.00
44477;DHT22;30180;44.788;10.366;2023-11-21T01:49:32;17.90;68.00
44477;DHT22;30180;44.788;10.366;2023-11-21T01:52:01;18.00;68.00
44477;DHT22;30180;44.788;10.366;2023-11-21T01:54:31;17.90;68.00
44477;DHT22;30180;44.788;10.366;2023-11-21T01:57:00;18.00;68.00
44477;DHT22;30180;44.788;10.366;2023-11-21T01:59:34;17.90;68.00
44477;DHT22;30180;44.788;10.366;2023-11-21T02:02:04;17.90;68.00
44477;DHT22;30180;44.788;10.366;2023-11-21T02:04:33;17.90;68.00
44477;DHT22;30180;44.788;10.366;2023-11-21T02:07:02;17.90;68.00
44477;DHT22;30180;44.788;10.366;2023-11-21T02:09:32;17.90;68.00
44477;DHT22;30180;44.788;10.366;2023-11-21T02:12:02;17.90;68.00
44477;DHT22;30180;44.788;10.366;2023-11-21T02:14:32;17.90;68.00
44477;DHT22;30180;44.788;10.366;2023-11-21T02:17:00;17.90;68.00
44477;DHT22;30180;44.788;10.366;2023-11-21T02:19:30;17.90;68.00
44477;DHT22;30180;44.788;10.366;2023-11-21T02:21:59;17.90;67.90
44477;DHT22;30180;44.788;10.366;2023-11-21T02:24:32;17.90;67.90
44477;DHT22;30180;44.788;10.366;2023-11-21T02:27:01;17.90;68.00
44477;DHT22;30180;44.788;10.366;2023-11-21T02:29:29;17.90;68.00
44477;DHT22;30180;44.788;10.366;2023-11-21T02:31:57;17.90;68.00
44477;DHT22;30180;44.788;10.366;2023-11-21T02:34:26;17.90;68.00
44477;DHT22;30180;44.788;10.366;2023-11-21T02:36:55;17.90;68.00
44477;DHT22;30180;44.788;10.366;2023-11-21T02:39:24;17.90;67.90
44477;DHT22;30180;44.788;10.366;2023-11-21T02:41:54;17.90;67.90
44477;DHT22;30180;44.788;10.366;2023-11-21T02:44:22;17.90;67.90
44477;DHT22;30180;44.788;10.366;2023-11-21T02:46:50;17.90;67.90
44477;DHT22;30180;44.788;10.366;2023-11-21T02:49:19;17.90;67.90
44477;DHT22;30180;44.788;10.366;2023-11-21T02:51:47;17.90;67.90
44477;DHT22;30180;44.788;10.366;2023-11-21T02:54:15;17.90;68.00
44477;DHT22;30180;44.788;10.366;2023-11-21T02:56:46;17.90;67.90
44477;DHT22;30180;44.788;10.366;2023-11-21T02:59:16;17.90;68.00
44477;DHT22;30180;44.788;10.366;2023-11-21T03:01:44;17.90;67.90
44477;DHT22;30180;44.788;10.366;2023-11-21T03:04:13;17.90;67.90
44477;DHT22;30180;44.788;10.366;2023-11-21T03:06:44;17.90;67.90
44477;DHT22;30180;44.788;10.366;2023-11-21T03:09:13;17.90;67.90
44477;DHT22;30180;44.788;10.366;2023-11-21T03:11:41;17.90;67.90
44477;DHT22;30180;44.788;10.366;2023-11-21T03:14:09;17.90;67.90
44477;DHT22;30180;44.788;10.366;2023-11-21T03:16:39;17.90;68.00
44477;DHT22;30180;44.788;10.366;2023-11-21T03:19:08;17.90;67.90
44477;DHT22;30180;44.788;10.366;2023-11-21T03:21:36;17.90;67.90
44477;DHT22;30180;44.788;10.366;2023-11-21T03:24:05;17.90;67.90
44477;DHT22;30180;44.788;10.366;2023-11-21T03:26:34;17.90;67.90
44477;DHT22;30180;44.788;10.366;2023-11-21T03:29:02;17.90;67.90
44477;DHT22;30180;44.788;10.366;2023-11-21T03:31:31;17.90;67.90
44477;DHT22;30180;44.788;10.366;2023-11-21T03:34:01;17.90;67.90
44477;DHT22;30180;44.788;10.366;2023-11-21T03:36:30;17.90;67.90
44477;DHT22;30180;44.788;10.366;2023-11-21T03:38:58;17.90;67.90
44477;DHT22;30180;44.788;10.366;2023-11-21T03:41:26;17.80;67.90
44477;DHT22;30180;44.788;10.366;2023-11-21T03:43:54;17.90;67.90
44477;DHT22;30180;44.788;10.366;2023-11-21T03:46:23;17.90;67.90
44477;DHT22;30180;44.788;10.366;2023-11-21T03:48:52;17.90;68.00
44477;DHT22;30180;44.788;10.366;2023-11-21T03:51:23;17.90;67.90
44477;DHT22;30180;44.788;10.366;2023-11-21T03:53:52;17.90;67.90
44477;DHT22;30180;44.788;10.366;2023-11-21T03:56:20;17.90;67.90
44477;DHT22;30180;44.788;10.366;2023-11-21T03:58:49;17.90;67.90
44477;DHT22;30180;44.788;10.366;2023-11-21T04:01:21;17.90;67.90
44477;DHT22;30180;44.788;10.366;2023-11-21T04:03:50;17.90;67.90
44477;DHT22;30180;44.788;10.366;2023-11-21T04:06:18;17.90;67.90
44477;DHT22;30180;44.788;10.366;2023-11-21T04:08:48;17.80;67.80
44477;DHT22;30180;44.788;10.366;2023-11-21T04:11:16;17.80;67.90
44477;DHT22;30180;44.788;10.366;2023-11-21T04:13:45;17.80;67.80
44477;DHT22;30180;44.788;10.366;2023-11-21T04:16:13;17.80;67.80
44477;DHT22;30180;44.788;10.366;2023-11-21T04:18:42;17.80;67.80
44477;DHT22;30180;44.788;10.366;2023-11-21T04:21:10;17.80;67.90
44477;DHT22;30180;44.788;10.366;2023-11-21T04:23:39;17.80;67.90
44477;DHT22;30180;44.788;10.366;2023-11-21T04:26:09;17.80;67.90
44477;DHT22;30180;44.788;10.366;2023-11-21T04:28:37;17.90;67.90
44477;DHT22;30180;44.788;10.366;2023-11-21T04:31:06;17.90;68.00
44477;DHT22;30180;44.788;10.366;2023-11-21T04:33:34;17.90;68.00
44477;DHT22;30180;44.788;10.366;2023-11-21T04:36:03;17.90;68.00
44477;DHT22;30180;44.788;10.366;2023-11-21T04:38:32;17.90;68.00
44477;DHT22;30180;44.788;10.366;2023-11-21T04:41:00;17.90;68.00
44477;DHT22;30180;44.788;10.366;2023-11-21T04:43:31;17.90;68.00
44477;DHT22;30180;44.788;10.366;2023-11-21T04:45:59;17.90;68.00
44477;DHT22;30180;44.788;10.366;2023-11-21T04:48:29;17.90;68.60
44477;DHT22;30180;44.788;10.366;2023-11-21T04:50:58;18.00;68.10
44477;DHT22;30180;44.788;10.366;2023-11-21T04:53:26;18.00;68.10
44477;DHT22;30180;44.788;10.366;2023-11-21T04:55:54;18.00;68.10
44477;DHT22;30180;44.788;10.366;2023-11-21T04:58:23;18.00;68.10
44477;DHT22;30180;44.788;10.366;2023-11-21T05:00:53;18.00;68.10
44477;DHT22;30180;44.788;10.366;2023-11-21T05:03:21;18.00;68.10
44477;DHT22;30180;44.788;10.366;2023-11-21T05:05:51;18.10;68.20
44477;DHT22;30180;44.788;10.366;2023-11-21T05:08:19;18.10;68.20
44477;DHT22;30180;44.788;10.366;2023-11-21T05:10:49;18.10;68.20
44477;DHT22;30180;44.788;10.366;2023-11-21T05:13:18;18.10;68.20
44477;DHT22;30180;44.788;10.366;2023-11-21T05:15:47;18.10;68.20
44477;DHT22;30180;44.788;10.366;2023-11-21T05:18:16;18.10;68.20
44477;DHT22;30180;44.788;10.366;2023-11-21T05:20:45;18.20;68.20
44477;DHT22;30180;44.788;10.366;2023-11-21T05:23:14;18.20;68.80
44477;DHT22;30180;44.788;10.366;2023-11-21T05:25:42;18.20;68.20
44477;DHT22;30180;44.788;10.366;2023-11-21T05:28:11;18.10;68.10
44477;DHT22;30180;44.788;10.366;2023-11-21T05:30:39;18.20;68.20
44477;DHT22;30180;44.788;10.366;2023-11-21T05:33:07;18.20;68.20
44477;DHT22;30180;44.788;10.366;2023-11-21T05:35:37;18.20;68.20
44477;DHT22;30180;44.788;10.366;2023-11-21T05:38:05;18.20;68.10
44477;DHT22;30180;44.788;10.366;2023-11-21T05:40:33;18.20;68.10
44477;DHT22;30180;44.788;10.366;2023-11-21T05:43:04;18.20;68.10
44477;DHT22;30180;44.788;10.366;2023-11-21T05:45:33;18.20;68.10
44477;DHT22;30180;44.788;10.366;2023-11-21T05:48:01;18.20;68.10
44477;DHT22;30180;44.788;10.366;2023-11-21T05:50:31;18.20;68.10
44477;DHT22;30180;44.788;10.366;2023-11-21T05:53:01;18.20;68.10
44477;DHT22;30180;44.788;10.366;2023-11-21T05:55:29;18.20;68.10
44477;DHT22;30180;44.788;10.366;2023-11-21T05:57:58;18.20;68.10
44477;DHT22;30180;44.788;10.366;2023-11-21T06:00:26;18.20;68.10
44477;DHT22;30180;44.788;10.366;2023-11-21T06:02:55;18.20;68.00
44477;DHT22;30180;44.788;10.366;2023-11-21T06:05:25;18.20;68.00
44477;DHT22;30180;44.788;10.366;2023-11-21T06:07:55;18.20;68.10
44477;DHT22;30180;44.788;10.366;2023-11-21T06:10:27;18.20;68.00
44477;DHT22;30180;44.788;10.366;2023-11-21T06:12:56;18.20;68.00
44477;DHT22;30180;44.788;10.366;2023-11-21T06:15:29;18.20;68.00
44477;DHT22;30180;44.788;10.366;2023-11-21T06:17:58;18.20;68.00
44477;DHT22;30180;44.788;10.366;2023-11-21T06:20:26;18.20;68.00
44477;DHT22;30180;44.788;10.366;2023-11-21T06:22:55;18.20;68.00
44477;DHT22;30180;44.788;10.366;2023-11-21T06:25:23;18.20;68.00
44477;DHT22;30180;44.788;10.366;2023-11-21T06:27:53;18.20;68.00
44477;DHT22;30180;44.788;10.366;2023-11-21T06:30:21;18.20;68.00
44477;DHT22;30180;44.788;10.366;2023-11-21T06:32:50;18.20;68.00
44477;DHT22;30180;44.788;10.366;2023-11-21T06:35:20;18.20;68.00
44477;DHT22;30180;44.788;10.366;2023-11-21T06:37:48;18.20;68.00
44477;DHT22;30180;44.788;10.366;2023-11-21T06:40:18;18.20;68.00
44477;DHT22;30180;44.788;10.366;2023-11-21T06:42:48;18.20;68.60
44477;DHT22;30180;44.788;10.366;2023-11-21T06:45:19;18.20;67.90
44477;DHT22;30180;44.788;10.366;2023-11-21T06:47:48;18.20;67.90
44477;DHT22;30180;44.788;10.366;2023-11-21T06:50:17;18.20;67.90
44477;DHT22;30180;44.788;10.366;2023-11-21T06:52:45;18.20;68.50
44477;DHT22;30180;44.788;10.366;2023-11-21T06:55:14;18.20;67.90
44477;DHT22;30180;44.788;10.366;2023-11-21T06:57:43;18.20;67.90
44477;DHT22;30180;44.788;10.366;2023-11-21T07:00:12;18.20;67.90
44477;DHT22;30180;44.788;10.366;2023-11-21T07:02:43;18.20;67.90
44477;DHT22;30180;44.788;10.366;2023-11-21T07:05:11;18.20;67.90
44477;DHT22;30180;44.788;10.366;2023-11-21T07:07:41;18.20;67.90
44477;DHT22;30180;44.788;10.366;2023-11-21T07:10:10;18.20;67.90
44477;DHT22;30180;44.788;10.366;2023-11-21T07:12:39;18.20;67.90
44477;DHT22;30180;44.788;10.366;2023-11-21T07:15:08;18.20;67.90
44477;DHT22;30180;44.788;10.366;2023-11-21T07:17:37;18.10;67.80
44477;DHT22;30180;44.788;10.366;2023-11-21T07:20:10;18.20;67.80
44477;DHT22;30180;44.788;10.366;2023-11-21T07:22:39;18.20;67.90
44477;DHT22;30180;44.788;10.366;2023-11-21T07:25:08;18.20;67.90
44477;DHT22;30180;44.788;10.366;2023-11-21T07:27:37;18.10;67.80
44477;DHT22;30180;44.788;10.366;2023-11-21T07:30:06;18.10;67.80
44477;DHT22;30180;44.788;10.366;2023-11-21T07:32:37;18.20;67.90
44477;DHT22;30180;44.788;10.366;2023-11-21T07:35:09;18.20;67.90
44477;DHT22;30180;44.788;10.366;2023-11-21T07:37:37;18.20;68.00
44477;DHT22;30180;44.788;10.366;2023-11-21T07:40:07;18.20;68.00
44477;DHT22;30180;44.788;10.366;2023-11-21T07:42:38;18.20;68.10
44477;DHT22;30180;44.788;10.366;2023-11-21T07:45:07;18.30;68.10
44477;DHT22;30180;44.788;10.366;2023-11-21T07:47:36;18.30;68.00
44477;DHT22;30180;44.788;10.366;2023-11-21T07:50:08;18.30;68.00
44477;DHT22;30180;44.788;10.366;2023-11-21T07:52:37;18.40;68.10
44477;DHT22;30180;44.788;10.366;2023-11-21T07:55:06;18.40;68.00
44477;DHT22;30180;44.788;10.366;2023-11-21T07:57:34;18.40;68.10
44477;DHT22;30180;44.788;10.366;2023-11-21T08:00:03;18.50;68.10
44477;DHT22;30180;44.788;10.366;2023-11-21T08:02:33;18.50;68.10
44477;DHT22;30180;44.788;10.366;2023-11-21T08:05:02;18.60;68.10
44477;DHT22;30180;44.788;10.366;2023-11-21T08:07:33;18.60;68.10
44477;DHT22;30180;44.788;10.366;2023-11-21T08:10:01;18.60;68.10
44477;DHT22;30180;44.788;10.366;2023-11-21T08:12:31;18.60;68.20
44477;DHT22;30180;44.788;10.366;2023-11-21T08:15:00;18.70;68.20
44477;DHT22;30180;44.788;10.366;2023-11-21T08:17:29;18.70;68.20
44477;DHT22;30180;44.788;10.366;2023-11-21T08:20:00;18.70;68.20
44477;DHT22;30180;44.788;10.366;2023-11-21T08:22:29;18.70;68.00
44477;DHT22;30180;44.788;10.366;2023-11-21T08:24:59;18.60;67.90
44477;DHT22;30180;44.788;10.366;2023-11-21T08:27:27;18.60;67.90
44477;DHT22;30180;44.788;10.366;2023-11-21T08:29:56;18.60;67.90
44477;DHT22;30180;44.788;10.366;2023-11-21T08:32:25;18.60;67.90
44477;DHT22;30180;44.788;10.366;2023-11-21T08:34:53;18.50;67.80
44477;DHT22;30180;44.788;10.366;2023-11-21T08:37:22;18.50;67.90
44477;DHT22;30180;44.788;10.366;2023-11-21T08:39:50;18.50;67.90
44477;DHT22;30180;44.788;10.366;2023-11-21T08:42:21;18.50;67.80
44477;DHT22;30180;44.788;10.366;2023-11-21T08:44:49;18.40;67.80
44477;DHT22;30180;44.788;10.366;2023-11-21T08:47:18;18.40;67.80
44477;DHT22;30180;44.788;10.366;2023-11-21T08:49:46;18.40;67.80
44477;DHT22;30180;44.788;10.366;2023-11-21T08:52:14;18.40;67.80
44477;DHT22;30180;44.788;10.366;2023-11-21T08:54:46;18.40;67.80
44477;DHT22;30180;44.788;10.366;2023-11-21T08:57:14;18.40;67.80
44477;DHT22;30180;44.788;10.366;2023-11-21T08:59:44;18.40;67.80
44477;DHT22;30180;44.788;10.366;2023-11-21T09:02:13;18.40;67.80
44477;DHT22;30180;44.788;10.366;2023-11-21T09:04:41;18.30;67.80
44477;DHT22;30180;44.788;10.366;2023-11-21T09:07:11;18.30;67.80
44477;DHT22;30180;44.788;10.366;2023-11-21T09:09:39;18.30;67.80
44477;DHT22;30180;44.788;10.366;2023-11-21T09:12:08;18.30;67.80
44477;DHT22;30180;44.788;10.366;2023-11-21T09:14:39;18.30;67.80
44477;DHT22;30180;44.788;10.366;2023-11-21T09:17:09;18.30;67.80
44477;DHT22;30180;44.788;10.366;2023-11-21T09:19:39;18.20;67.80
44477;DHT22;30180;44.788;10.366;2023-11-21T09:22:08;18.30;68.00
44477;DHT22;30180;44.788;10.366;2023-11-21T09:24:36;18.30;68.00
44477;DHT22;30180;44.788;10.366;2023-11-21T09:27:06;18.30;68.10
44477;DHT22;30180;44.788;10.366;2023-11-21T09:29:34;18.30;68.10
44477;DHT22;30180;44.788;10.366;2023-11-21T09:32:04;18.40;68.10
44477;DHT22;30180;44.788;10.366;2023-11-21T09:34:34;18.40;68.10
44477;DHT22;30180;44.788;10.366;2023-11-21T09:37:05;18.40;68.00
44477;DHT22;30180;44.788;10.366;2023-11-21T09:39:34;18.50;68.10
44477;DHT22;30180;44.788;10.366;2023-11-21T09:42:07;18.50;68.10
44477;DHT22;30180;44.788;10.366;2023-11-21T09:44:56;18.50;68.10
44477;DHT22;30180;44.788;10.366;2023-11-21T09:47:28;18.50;68.10
44477;DHT22;30180;44.788;10.366;2023-11-21T09:50:00;18.50;68.00
44477;DHT22;30180;44.788;10.366;2023-11-21T09:52:31;18.60;68.10
44477;DHT22;30180;44.788;10.366;2023-11-21T09:55:00;18.60;68.10
44477;DHT22;30180;44.788;10.366;2023-11-21T09:57:31;18.60;68.10
44477;DHT22;30180;44.788;10.366;2023-11-21T10:00:02;18.60;68.10
44477;DHT22;30180;44.788;10.366;2023-11-21T10:02:33;18.60;68.10
44477;DHT22;30180;44.788;10.366;2023-11-21T10:05:05;18.60;68.10
44477;DHT22;30180;44.788;10.366;2023-11-21T10:07:36;18.60;68.10
44477;DHT22;30180;44.788;10.366;2023-11-21T10:10:07;18.70;68.10
44477;DHT22;30180;44.788;10.366;2023-11-21T10:12:36;18.60;68.00
44477;DHT22;30180;44.788;10.366;2023-11-21T10:15:08;18.70;68.10
44477;DHT22;30180;44.788;10.366;2023-11-21T10:17:44;18.70;68.10
44477;DHT22;30180;44.788;10.366;2023-11-21T10:20:15;18.70;68.10
44477;DHT22;30180;44.788;10.366;2023-11-21T10:22:43;18.70;68.10
44477;DHT22;30180;44.788;10.366;2023-11-21T10:25:13;18.70;68.10
44477;DHT22;30180;44.788;10.366;2023-11-21T10:27:42;18.70;68.10
44477;DHT22;30180;44.788;10.366;2023-11-21T10:30:11;18.70;68.70
44477;DHT22;30180;44.788;10.366;2023-11-21T10:32:39;18.70;68.10
44477;DHT22;30180;44.788;10.366;2023-11-21T10:35:08;18.70;68.10
44477;DHT22;30180;44.788;10.366;2023-11-21T10:37:40;18.80;68.10
44477;DHT22;30180;44.788;10.366;2023-11-21T10:40:10;18.80;68.10
44477;DHT22;30180;44.788;10.366;2023-11-21T10:42:39;18.80;68.20
44477;DHT22;30180;44.788;10.366;2023-11-21T10:45:09;18.80;68.10
44477;DHT22;30180;44.788;10.366;2023-11-21T10:47:41;18.90;68.20
44477;DHT22;30180;44.788;10.366;2023-11-21T10:50:10;18.90;68.20
44477;DHT22;30180;44.788;10.366;2023-11-21T10:52:41;18.90;68.20
44477;DHT22;30180;44.788;10.366;2023-11-21T10:55:17;18.90;68.20
44477;DHT22;30180;44.788;10.366;2023-11-21T10:57:51;19.00;68.30
44477;DHT22;30180;44.788;10.366;2023-11-21T11:00:20;19.00;68.20
44477;DHT22;30180;44.788;10.366;2023-11-21T11:02:50;19.00;68.20
44477;DHT22;30180;44.788;10.366;2023-11-21T11:05:20;19.00;68.30
44477;DHT22;30180;44.788;10.366;2023-11-21T11:07:51;19.00;68.20
44477;DHT22;30180;44.788;10.366;2023-11-21T11:10:21;19.00;68.20
44477;DHT22;30180;44.788;10.366;2023-11-21T11:12:53;19.00;68.20
44477;DHT22;30180;44.788;10.366;2023-11-21T11:15:22;19.10;68.20
44477;DHT22;30180;44.788;10.366;2023-11-21T11:17:51;19.10;68.20
44477;DHT22;30180;44.788;10.366;2023-11-21T11:20:25;19.10;68.20
44477;DHT22;30180;44.788;10.366;2023-11-21T11:23:26;19.10;68.20
44477;DHT22;30180;44.788;10.366;2023-11-21T11:26:10;19.10;68.20
44477;DHT22;30180;44.788;10.366;2023-11-21T11:28:47;19.10;68.20
44477;DHT22;30180;44.788;10.366;2023-11-21T11:31:39;19.20;68.20
44477;DHT22;30180;44.788;10.366;2023-11-21T11:34:17;19.20;68.20
44477;DHT22;30180;44.788;10.366;2023-11-21T11:36:53;19.20;68.10
44477;DHT22;30180;44.788;10.366;2023-11-21T11:39:34;19.20;68.10
44477;DHT22;30180;44.788;10.366;2023-11-21T11:42:05;19.10;68.10
44477;DHT22;30180;44.788;10.366;2023-11-21T11:44:51;19.10;68.10
44477;DHT22;30180;44.788;10.366;2023-11-21T11:47:22;19.10;68.10
44477;DHT22;30180;44.788;10.366;2023-11-21T11:49:58;19.20;68.10
44477;DHT22;30180;44.788;10.366;2023-11-21T11:52:38;19.10;68.00
44477;DHT22;30180;44.788;10.366;2023-11-21T11:55:11;19.10;68.00
44477;DHT22;30180;44.788;10.366;2023-11-21T11:57:41;19.10;68.00
44477;DHT22;30180;44.788;10.366;2023-11-21T12:00:12;19.10;68.00
44477;DHT22;30180;44.788;10.366;2023-11-21T12:02:45;19.20;68.00
44477;DHT22;30180;44.788;10.366;2023-11-21T12:05:15;19.10;67.90
44477;DHT22;30180;44.788;10.366;2023-11-21T12:07:45;19.20;68.00
44477;DHT22;30180;44.788;10.366;2023-11-21T12:10:17;19.10;67.90
44477;DHT22;30180;44.788;10.366;2023-11-21T12:12:47;19.10;67.80
44477;DHT22;30180;44.788;10.366;2023-11-21T12:15:16;19.20;67.90
44477;DHT22;30180;44.788;10.366;2023-11-21T12:17:46;19.20;67.90
44477;DHT22;30180;44.788;10.366;2023-11-21T12:20:18;19.10;67.80
44477;DHT22;30180;44.788;10.366;2023-11-21T12:22:48;19.10;67.80
44477;DHT22;30180;44.788;10.366;2023-11-21T12:25:20;19.10;67.80
44477;DHT22;30180;44.788;10.366;2023-11-21T12:27:49;19.10;67.80
44477;DHT22;30180;44.788;10.366;2023-11-21T12:30:19;19.10;67.80
44477;DHT22;30180;44.788;10.366;2023-11-21T12:32:50;19.10;67.80
44477;DHT22;30180;44.788;10.366;2023-11-21T12:35:21;19.10;67.70
44477;DHT22;30180;44.788;10.366;2023-11-21T12:37:50;19.10;67.80
44477;DHT22;30180;44.788;10.366;2023-11-21T12:40:20;19.10;67.80
44477;DHT22;30180;44.788;10.366;2023-11-21T12:42:51;19.10;67.80
44477;DHT22;30180;44.788;10.366;2023-11-21T12:45:21;19.00;67.70
44477;DHT22;30180;44.788;10.366;2023-11-21T12:47:55;19.00;67.70
44477;DHT22;30180;44.788;10.366;2023-11-21T12:50:28;19.10;67.70
44477;DHT22;30180;44.788;10.366;2023-11-21T12:53:00;19.10;67.70
44477;DHT22;30180;44.788;10.366;2023-11-21T12:55:31;19.00;67.70
44477;DHT22;30180;44.788;10.366;2023-11-21T12:58:02;19.10;67.70
44477;DHT22;30180;44.788;10.366;2023-11-21T13:00:36;19.10;67.60
44477;DHT22;30180;44.788;10.366;2023-11-21T13:03:07;19.00;67.60
44477;DHT22;30180;44.788;10.366;2023-11-21T13:05:37;19.00;67.60
44477;DHT22;30180;44.788;10.366;2023-11-21T13:08:07;19.00;67.60
44477;DHT22;30180;44.788;10.366;2023-11-21T13:10:39;19.00;67.60
44477;DHT22;30180;44.788;10.366;2023-11-21T13:13:11;19.00;67.50
44477;DHT22;30180;44.788;10.366;2023-11-21T13:15:51;19.00;67.50
44477;DHT22;30180;44.788;10.366;2023-11-21T13:18:21;19.00;67.50
44477;DHT22;30180;44.788;10.366;2023-11-21T13:20:50;19.00;67.50
44477;DHT22;30180;44.788;10.366;2023-11-21T13:23:18;19.00;67.50
44477;DHT22;30180;44.788;10.366;2023-11-21T13:25:47;19.00;67.50
44477;DHT22;30180;44.788;10.366;2023-11-21T13:28:28;19.00;67.40
44477;DHT22;30180;44.788;10.366;2023-11-21T13:31:00;19.00;67.50
44477;DHT22;30180;44.788;10.366;2023-11-21T13:33:37;18.90;67.40
44477;DHT22;30180;44.788;10.366;2023-11-21T13:36:06;18.90;67.40
44477;DHT22;30180;44.788;10.366;2023-11-21T13:38:37;18.90;67.40
44477;DHT22;30180;44.788;10.366;2023-11-21T13:41:12;18.90;67.40
44477;DHT22;30180;44.788;10.366;2023-11-21T13:43:41;18.90;67.40
44477;DHT22;30180;44.788;10.366;2023-11-21T13:46:17;18.90;67.40
44477;DHT22;30180;44.788;10.366;2023-11-21T13:48:49;18.90;68.10
44477;DHT22;30180;44.788;10.366;2023-11-21T13:51:23;18.90;67.50
44477;DHT22;30180;44.788;10.366;2023-11-21T13:54:01;18.90;67.60
44477;DHT22;30180;44.788;10.366;2023-11-21T13:56:30;18.90;67.50
44477;DHT22;30180;44.788;10.366;2023-11-21T13:58:59;18.90;67.60
44477;DHT22;30180;44.788;10.366;2023-11-21T14:01:36;18.90;67.60
44477;DHT22;30180;44.788;10.366;2023-11-21T14:04:21;18.90;67.70
44477;DHT22;30180;44.788;10.366;2023-11-21T14:07:03;18.90;67.70
44477;DHT22;30180;44.788;10.366;2023-11-21T14:09:47;18.90;67.70
44477;DHT22;30180;44.788;10.366;2023-11-21T14:12:18;18.90;67.70
44477;DHT22;30180;44.788;10.366;2023-11-21T14:14:46;19.00;67.80
44477;DHT22;30180;44.788;10.366;2023-11-21T14:17:14;19.00;68.40
44477;DHT22;30180;44.788;10.366;2023-11-21T14:19:43;19.00;67.80
44477;DHT22;30180;44.788;10.366;2023-11-21T14:22:11;19.00;67.80
44477;DHT22;30180;44.788;10.366;2023-11-21T14:24:40;19.00;67.80
44477;DHT22;30180;44.788;10.366;2023-11-21T14:27:12;19.00;67.80
44477;DHT22;30180;44.788;10.366;2023-11-21T14:29:43;19.00;67.70
44477;DHT22;30180;44.788;10.366;2023-11-21T14:32:12;19.00;67.70
44477;DHT22;30180;44.788;10.366;2023-11-21T14:34:41;19.00;67.70
44477;DHT22;30180;44.788;10.366;2023-11-21T14:37:14;19.00;67.70
44477;DHT22;30180;44.788;10.366;2023-11-21T14:39:42;19.00;67.70
44477;DHT22;30180;44.788;10.366;2023-11-21T14:42:13;19.00;67.60
44477;DHT22;30180;44.788;10.366;2023-11-21T14:44:44;19.00;67.60
44477;DHT22;30180;44.788;10.366;2023-11-21T14:47:12;19.00;67.60
44477;DHT22;30180;44.788;10.366;2023-11-21T14:49:44;19.00;67.60
44477;DHT22;30180;44.788;10.366;2023-11-21T14:52:23;19.00;67.60
44477;DHT22;30180;44.788;10.366;2023-11-21T14:55:02;19.00;67.60
44477;DHT22;30180;44.788;10.366;2023-11-21T14:57:58;19.00;67.60
44477;DHT22;30180;44.788;10.366;2023-11-21T15:00:31;19.00;67.70
44477;DHT22;30180;44.788;10.366;2023-11-21T15:03:09;19.00;67.60
44477;DHT22;30180;44.788;10.366;2023-11-21T15:05:37;19.00;67.70
44477;DHT22;30180;44.788;10.366;2023-11-21T15:08:06;19.00;67.70
44477;DHT22;30180;44.788;10.366;2023-11-21T15:10:47;19.10;67.70
44477;DHT22;30180;44.788;10.366;2023-11-21T15:13:21;19.00;67.60
44477;DHT22;30180;44.788;10.366;2023-11-21T15:15:51;19.00;67.60
44477;DHT22;30180;44.788;10.366;2023-11-21T15:18:21;19.00;67.70
44477;DHT22;30180;44.788;10.366;2023-11-21T15:20:51;19.00;67.70
44477;DHT22;30180;44.788;10.366;2023-11-21T15:23:19;19.00;67.80
44477;DHT22;30180;44.788;10.366;2023-11-21T15:25:48;19.00;67.70
44477;DHT22;30180;44.788;10.366;2023-11-21T15:28:17;19.10;67.70
44477;DHT22;30180;44.788;10.366;2023-11-21T15:30:46;19.00;67.60
44477;DHT22;30180;44.788;10.366;2023-11-21T15:33:18;19.10;67.60